Austin, TX (78758)

10:20 AM CDT on May 05, 2015 (GMT -0500)
Quail Hollow, North Austin | | Change Station
CLOSE
Current Station
Personal Weather Station
Location: Austin, TX
Elevation: 774 ft
Nearby Weather Stations

Elev 774 ft 30.39 °N, 97.70 °W | Updated 17 seconds ago

Overcast
Overcast
74.3 °F
Feels Like 75 °F
N
0.0
Wind Variable Wind from West
Gusts 4.0 mph

Today
High -- | Low -- °F
--% Chance of Precip.
Yesterday
High -- | Low -- °F
Precip. -- in
6:44 AM 8:11 PM
Full, 98% visible
Pressure 30.00 in
Visibility 10.0 miles
Clouds Few 1700 ft
Scattered Clouds 2900 ft
Mostly Cloudy 3500 ft
Heat Index 75 °F
Dew Point 67 °F
Humidity 78%
Rainfall in
Snow Depth Not available.
UV 3 out of 12
Pollen 4.70 out of 12
Air Quality Not available.
Flu Activity Sporadic
SPECI KATT 051516Z AUTO 15013G19KT 10SM FEW017 SCT029 BKN035 24/18 A3000 RMK AO2 T02390178

More Conditions Fewer Conditions

Pressure 30.00 in
Visibility 10.0 miles
Clouds Few 1700 ft
Scattered Clouds 2900 ft
Mostly Cloudy 3500 ft
Heat Index 75 °F
Dew Point 67 °F
Humidity 78%
Rainfall in
Snow Depth Not available.
UV 3 out of 12
Pollen 4.70 out of 12
Air Quality Not available.
Flu Activity Sporadic
SPECI KATT 051516Z AUTO 15013G19KT 10SM FEW017 SCT029 BKN035 24/18 A3000 RMK AO2 T02390178

More Conditions Fewer Conditions

10-Day Weather Forecast

Almanac

Astronomy

May. 05, 2015 Rise Set
Actual Time
Civil Twilight
Nautical Twilight
Astronomical Twilight
Moon
Length of Visible Light
Length of Day
Tomorrow will be .
, % of the Moon is Illuminated

Today's Extremes

State Highs State Lows

Community

WunderPhotos

Upload Photos

1,818,917 photos uploaded!

WunderBlogs® & News

Nearby

Air Quality

  Air Quality AQ Index Pollutant
Not available.

Snow Depth

Station Depth Elevation

Earthquake Activity

City Distance Mag. Time & Date
Minimum magnitude displayed is 2.5.

Coastal Water Temperatures

Place Temperature

Stations

Nearby Weather Stations

Station Location Temp. Windchill Dew Point Humidity Wind Precip. Elev Updated Type